Manitowoc Company Inc (MTW) Latest Bloomsberg Price


Mffais Ranking #2260 Overall / #6 Industry
Industry: Construction And Mining Machinery

Number of Companies: 155 (Ranking #1109 Overall/#5 Industry)
Inflow: $ 34,519 (K) (Ranking #1491 Overall/#5 Industry)
Outflow: $ -78,079 (K)
Mffais Flow: $ -43,560 (K) (Ranking #2260 Overall/#6 Industry)


Receive a FREE weekly executive review of stocks moving into the top 10, taking the top industy spot or moving up within their industry. Sent directly to your Inbox every Saturday. Sign up today and get last week's review immediately sent to you.

We value and respect your privacy. Please read our Terms and Conditions which states our firm commitment to your privacy. Your email address will not be shared with a third party, nor will it be sold or used for purposes other than subscription for the weekly review.

Owner CPOR Shares Action Qty Chg Invested (K) Total Current Value (K)
Van Den Berg Management I Inc 2016-09-30 1,609,075 New Holding 1,609,075 $ 8,898 $ 8,898
Firefly Value Partners Lp 2016-09-30 8,340,789 Added More 1,235,100 $ 6,830 $ 46,124
Dimensional Fund Advisors Lp 2016-09-30 4,695,121 Added More 1,125,411 $ 6,223 $ 25,964
Southpoint Capital Advisors Lp 2016-09-30 2,000,000 Added More 500,000 $ 2,765 $ 11,060
Pdt Partners Llc 2016-09-30 422,800 New Holding 422,800 $ 2,338 $ 2,338
Northern Trust Corp 2016-09-30 2,313,036 Added More 357,151 $ 1,975 $ 12,791
Kbc Group Nv 2016-09-30 170,671 New Holding 170,671 $ 943 $ 943
Verition Fund Management Llc 2016-09-30 138,012 New Holding 138,012 $ 763 $ 763
Panagora Asset Management Inc 2016-09-30 149,169 Added More 130,062 $ 719 $ 824
Brandywine Global Investment Management Llc 2016-09-30 93,200 New Holding 93,200 $ 515 $ 515
Sg Americas Securities Llc 2016-09-30 64,764 New Holding 64,764 $ 358 $ 358
Td Asset Management Inc 2016-09-30 62,100 New Holding 62,100 $ 343 $ 343
Rbf Capital Llc 2016-09-30 50,000 New Holding 50,000 $ 276 $ 276
Jacobs Levy Equity Management Inc 2016-09-30 45,700 New Holding 45,700 $ 252 $ 252
Sii Investments Inc Wi 2016-09-30 59,528 Added More 37,523 $ 207 $ 329
Financial Architects Inc 2016-09-30 30,660 Added More 30,060 $ 166 $ 169
Strs Ohio 2016-09-30 164,400 Added More 28,400 $ 157 $ 909
Schneider Capital Management Corp 2016-09-30 25,000 New Holding 25,000 $ 138 $ 138
Horizon Kinetics Llc 2016-09-30 123,645 Added More 17,418 $ 96 $ 683
Natixis Asset Management 2016-09-30 1,266,900 Added More 16,400 $ 90 $ 7,005
Quantitative Investment Management Llc 2016-09-30 173,700 Added More 14,400 $ 79 $ 960
Laurion Capital Management Lp 2016-09-30 12,400 New Holding 12,400 $ 68 $ 68
Grt Capital Partners L L C 2016-09-30 10,000 New Holding 10,000 $ 55 $ 55
Raymond James Associates 2016-09-30 24,089 Added More 9,015 $ 49 $ 133
Gsa Capital Partners Llp 2016-09-30 46,103 Added More 7,200 $ 39 $ 254
Nationwide Fund Advisors 2016-09-30 101,953 Added More 5,351 $ 29 $ 563
Ahl Partners Llp 2016-09-30 29,700 Added More 4,735 $ 26 $ 164
Cambridge Investment Research Advisors Inc 2016-09-30 37,514 Added More 3,503 $ 19 $ 207
Cwm Llc 2016-09-30 3,091 New Holding 3,091 $ 17 $ 17
Winfield Associates Inc 2016-09-30 3,000 New Holding 3,000 $ 16 $ 16
California State Teachers Retirement System 2016-09-30 269,335 Added More 2,600 $ 14 $ 1,489
Blackrock Inc 2016-09-30 15,910 Added More 2,060 $ 11 $ 87
Integral Derivatives Llc 2016-09-30 24,672 Added More 2,000 $ 11 $ 136
Rhumbline Advisers 2016-09-30 188,332 Added More 1,740 $ 9 $ 1,041
Leavell Investment Management Inc 2016-09-30 16,581 Added More 1,000 $ 5 $ 91
Creative Planning 2016-09-30 5,569 Added More 400 $ 2 $ 30
Legal General Group Plc 2016-09-30 81,640 Added More 320 $ 1 $ 451
Sei Investments Co 2016-09-30 31,686 Added More 215 $ 1 $ 175
Salem Investment Counselors Inc 2016-09-30 150 New Holding 150 $ 0 $ 0
American International Group Inc 2016-09-30 73,339 Added More 112 $ 0 $ 405
Aperio Group Llc 2016-09-30 31,321 Added More 32 $ 0 $ 173
Sonora Investment Management Llc 2016-09-30 202 Added More 1 $ 0 $ 1
Gabelli Funds Llc 2016-09-30 197,000 No Change 0 $ 0 $ 1,089
Fifth Third Bancorp 2016-09-30 1,049 No Change 0 $ 0 $ 5
Valley National Advisers Inc 2016-09-30 197 No Change 0 $ 0 $ 1
Delta Asset Management Llc Tn 2016-09-30 948 No Change 0 $ 0 $ 5
Burnham Asset Management Corp Ny 2016-06-30 10,000 No Change 0 $ 0 $ 54
Birmingham Capital Management Co Inc Al 2016-09-30 21,805 No Change 0 $ 0 $ 120
Icahn Carl C 2016-09-30 10,582,660 No Change 0 $ 0 $ 58,522
Qci Asset Management Inc Ny 2016-09-30 1,500 No Change 0 $ 0 $ 8
Dubuque Bank Trust Co 2016-09-30 650 No Change 0 $ 0 $ 3
Nisa Investment Advisors Llc 2016-09-30 6,100 No Change 0 $ 0 $ 33
Re Advisers Corp 2016-09-30 2,183,900 No Change 0 $ 0 $ 12,076
Fortaleza Asset Management Inc 2016-09-30 20,555 No Change 0 $ 0 $ 113
Ladenburg Thalmann Financial Services Inc 2016-09-30 8,506 No Change 0 $ 0 $ 47
Gray Financial Group Ga Adv Adv 2016-09-30 24,538 No Change 0 $ 0 $ 135
Eaton Vance Management 2016-09-30 83,741 No Change 0 $ 0 $ 463
Van Strum Towne Inc 2016-09-30 61,370 No Change 0 $ 0 $ 339
Massmutual Trust Co Fsb Adv 2016-06-30 1,000 No Change 0 $ 0 $ 5
Northwestern Mutual Wealth Management Co 2016-09-30 1,330 No Change 0 $ 0 $ 7
Rational Advisors Llc 2016-09-30 27,000 No Change 0 $ 0 $ 149
Klcm Advisors Inc 2016-09-30 12,400 No Change 0 $ 0 $ 68
First Mercantile Trust Co 2016-09-30 9,600 No Change 0 $ 0 $ 53
Zurcher Kantonalbank Zurich Cantonalbank 2016-09-30 11,230 No Change 0 $ 0 $ 62
Robeco Institutional Asset Management B V 2016-09-30 71,077 No Change 0 $ 0 $ 393
Ksa Capital Management Llc 2016-09-30 50,000 No Change 0 $ 0 $ 276
Sandy Spring Bank 2016-09-30 2,282 No Change 0 $ 0 $ 12
Johnson Financial Group Inc 2016-09-30 3,780 No Change 0 $ 0 $ 20
Wfg Advisors Lp 2016-09-30 211 No Change 0 $ 0 $ 1
Bartlett Co Llc 2016-09-30 2,000 No Change 0 $ 0 $ 11
Swiss National Bank 2016-09-30 212,300 No Change 0 $ 0 $ 1,174
Next Financial Group Inc 2016-09-30 100 No Change 0 $ 0 $ 0
Isthmus Partners Llc 2016-09-30 800 No Change 0 $ 0 $ 4
Integrated Wealth Management 2016-09-30 1,890 No Change 0 $ 0 $ 10
Ct Financial Advisors Llc 2016-09-30 895 No Change 0 $ 0 $ 4
Ifp Advisors Inc 2016-09-30 1,100 No Change 0 $ 0 $ 6
Quadrant Capital Group Llc 2016-09-30 1,178 No Change 0 $ 0 $ 6
Proficio Capital Partners Llc 2016-09-30 12 No Change 0 $ 0 $ 0
Jacobi Capital Management Llc 2016-09-30 4,200 No Change 0 $ 0 $ 23
Zions Bancorporation 2016-09-30 0 Sold All -3 $ -0 $ 0
Ironwood Investment Management Llc 2016-09-30 42,045 Sold Some -45 $ -0 $ 232
Bronfman E L Rothschild L P 2016-09-30 2,913 Sold Some -59 $ -0 $ 16
Associated Banc-Corp 2016-09-30 114,538 Sold Some -100 $ -0 $ 633
Hudock Capital Group Llc 2016-09-30 1,004 Sold Some -236 $ -1 $ 5
Cetera Advisor Networks Llc 2016-09-30 11,020 Sold Some -274 $ -1 $ 60
Pnc Financial Services Group Inc 2016-09-30 25,550 Sold Some -277 $ -1 $ 141
Advisory Services Network Llc 2016-09-30 6,705 Sold Some -410 $ -2 $ 37
Winch Advisory Services Llc 2016-09-30 606 Sold Some -606 $ -3 $ 3
Tower Research Capital Llc Trc 2016-09-30 470 Sold Some -878 $ -4 $ 2
Msi Financial Services Inc 2016-09-30 4,646 Sold Some -997 $ -5 $ 25
First Manhattan Co 2016-09-30 0 Sold All -1,000 $ -5 $ 0
Advisor Group Inc 2016-09-30 15,769 Sold Some -1,008 $ -5 $ 87
Checchi Capital Advisers Llc 2016-09-30 0 Sold All -1,130 $ -6 $ 0
Philadelphia Trust Co 2016-09-30 14,750 Sold Some -1,220 $ -6 $ 81
Hsbc Holdings Plc 2016-09-30 26,499 Sold Some -1,291 $ -7 $ 146
First Financial Corp In 2016-09-30 0 Sold All -1,348 $ -7 $ 0
Baird Financial Group Inc 2016-09-30 14,410 Sold Some -1,750 $ -9 $ 79
Blackrock Investment Management Llc 2016-09-30 518,874 Sold Some -2,006 $ -11 $ 2,869
Private Advisor Group Llc 2016-09-30 24,136 Sold Some -2,030 $ -11 $ 133
Envestnet Asset Management Inc 2016-09-30 12,905 Sold Some -2,422 $ -13 $ 71
Raymond James Financial Services Advisors Inc 2016-09-30 12,729 Sold Some -3,130 $ -17 $ 70
Commonwealth Equity Services Inc 2016-09-30 49,202 Sold Some -3,493 $ -19 $ 272
Proshare Advisors Llc 2016-09-30 12,885 Sold Some -3,717 $ -20 $ 71
Invictus Rg 2016-09-30 0 Sold All -3,725 $ -20 $ 0
Squarepoint Ops Llc 2016-09-30 43,600 Sold Some -4,100 $ -22 $ 241
Teacher Retirement System Of Texas 2016-09-30 14,072 Sold Some -4,204 $ -23 $ 77
Seven Bridges Advisors Llc 2016-09-30 22,919 Sold Some -5,773 $ -31 $ 126
Cutler Group Lp 2016-09-30 11,631 Sold Some -6,196 $ -34 $ 64
Springbok Capital Management Llc 2016-09-30 400 Sold Some -7,100 $ -39 $ 2
Group One Trading L P 2016-09-30 0 Sold All -7,678 $ -42 $ 0
Highwater Wealth Management Llc 2016-09-30 0 Sold All -10,000 $ -55 $ 0
Petrus Trust Company Lta 2016-09-30 14,603 Sold Some -11,929 $ -65 $ 80
Ccm Investment Advisers Llc 2016-09-30 40,000 Sold Some -12,000 $ -66 $ 221
New York State Common Retirement Fund 2016-09-30 296,200 Sold Some -13,200 $ -72 $ 1,637
Jane Street Group Llc 2016-09-30 0 Sold All -14,026 $ -77 $ 0
Capstone Investment Advisors Llc 2016-09-30 0 Sold All -14,400 $ -79 $ 0
Empyrean Capital Partners Lp 2016-09-30 0 Sold All -16,092 $ -88 $ 0
Walleye Trading Llc 2016-09-30 3,400 Sold Some -16,600 $ -91 $ 18
Kcg Holdings Inc 2016-09-30 55,557 Sold Some -19,959 $ -110 $ 307
Boothbay Fund Management Llc 2016-09-30 0 Sold All -21,749 $ -120 $ 0
Babson Capital Management Llc 2016-09-30 107,900 Sold Some -25,400 $ -140 $ 596
Quantbot Technologies Lp 2016-09-30 0 Sold All -28,108 $ -155 $ 0
Pacad Investment Ltd 2016-09-30 32,800 Sold Some -36,100 $ -199 $ 181
Howard Hughes Medical Institute 2016-09-30 53,855 Sold Some -36,906 $ -204 $ 297
Us Bancorp De 2016-09-30 24,584 Sold Some -41,122 $ -227 $ 135
Algert Global Llc 2016-09-30 0 Sold All -42,972 $ -237 $ 0
Teachers Advisors Inc 2016-09-30 261,273 Sold Some -48,161 $ -266 $ 1,444
Comerica Bank 2016-09-30 95,988 Sold Some -48,785 $ -269 $ 530
Guggenheim Capital Llc 2016-09-30 0 Sold All -49,546 $ -273 $ 0
Omega Advisors Inc 2016-09-30 0 Sold All -50,000 $ -276 $ 0
Highbridge Capital Management Llc 2016-09-30 0 Sold All -52,402 $ -289 $ 0
Clinton Group Inc 2016-09-30 0 Sold All -61,629 $ -340 $ 0
Secor Capital Advisors Lp 2016-09-30 91,184 Sold Some -61,787 $ -341 $ 504
Princeton Alpha Management Lp 2016-09-30 0 Sold All -70,878 $ -391 $ 0
Cubist Systematic Strategies Llc 2016-09-30 51,411 Sold Some -72,827 $ -402 $ 284
13d Management Llc 2016-09-30 597,881 Sold Some -87,960 $ -486 $ 3,306
Trexquant Investment Lp 2016-09-30 0 Sold All -94,800 $ -524 $ 0
Alambic Investment Management L P 2016-09-30 103,857 Sold Some -118,300 $ -654 $ 574
Tudor Investment Corp Et Al 2016-09-30 25,527 Sold Some -127,729 $ -706 $ 141
Cantab Capital Partners Llp 2016-09-30 8,624 Sold Some -132,700 $ -733 $ 47
A R T Advisors Llc 2016-09-30 20,800 Sold Some -142,877 $ -790 $ 115
Landscape Capital Management L L C 2016-09-30 0 Sold All -159,800 $ -883 $ 0
Omers Administration Corp 2016-09-30 0 Sold All -159,900 $ -884 $ 0
Eam Investors Llc 2016-09-30 0 Sold All -170,903 $ -945 $ 0
Emerald Acquisition Ltd 2016-09-30 303,079 Sold Some -177,786 $ -983 $ 1,676
Toth Financial Advisory Corp 2016-09-30 0 Sold All -195,700 $ -1,082 $ 0
Dynamic Capital Management Ltd 2016-09-30 0 Sold All -257,286 $ -1,422 $ 0
Globeflex Capital L P 2016-09-30 0 Sold All -298,805 $ -1,652 $ 0
Engineers Gate Manager Lp 2016-09-30 0 Sold All -343,817 $ -1,901 $ 0
Gotham Asset Management Llc 2016-09-30 28,157 Sold Some -366,289 $ -2,025 $ 155
Sanctuary Wealth Advisors Llc 2016-09-30 0 Sold All -598,087 $ -3,307 $ 0
Parametric Portfolio Associates Llc 2016-09-30 339,598 Sold Some -682,893 $ -3,776 $ 1,877
Kennedy Capital Management Inc 2016-09-30 1,461,866 Sold Some -814,003 $ -4,501 $ 8,084
J Goldman Co Lp 2016-09-30 0 Sold All -815,800 $ -4,511 $ 0
Kensico Capital Management Corp 2016-09-30 0 Sold All -7,429,000 $ -41,082 $ 0